sensor_id;sensor_type;location;lat;lon;timestamp;P1;durP1;ratioP1;P2;durP2;ratioP2
40322;SDS011;26030;51.164;17.100;2023-07-30T00:02:51;2.30;;;1.90;;
40322;SDS011;26030;51.164;17.100;2023-07-30T00:07:55;2.70;;;1.80;;
40322;SDS011;26030;51.164;17.100;2023-07-30T00:12:59;3.00;;;1.70;;
40322;SDS011;26030;51.164;17.100;2023-07-30T00:18:04;2.90;;;2.00;;
40322;SDS011;26030;51.164;17.100;2023-07-30T00:23:08;4.00;;;2.80;;
40322;SDS011;26030;51.164;17.100;2023-07-30T00:28:12;3.00;;;1.70;;
40322;SDS011;26030;51.164;17.100;2023-07-30T00:33:17;3.60;;;1.80;;
40322;SDS011;26030;51.164;17.100;2023-07-30T00:38:21;2.60;;;1.70;;
40322;SDS011;26030;51.164;17.100;2023-07-30T00:43:26;2.00;;;1.70;;
40322;SDS011;26030;51.164;17.100;2023-07-30T00:48:30;2.20;;;2.00;;
40322;SDS011;26030;51.164;17.100;2023-07-30T00:53:34;1.90;;;1.70;;
40322;SDS011;26030;51.164;17.100;2023-07-30T00:58:41;2.40;;;2.00;;
40322;SDS011;26030;51.164;17.100;2023-07-30T01:03:47;3.50;;;2.00;;
40322;SDS011;26030;51.164;17.100;2023-07-30T01:08:51;3.30;;;1.70;;
40322;SDS011;26030;51.164;17.100;2023-07-30T01:13:56;2.60;;;1.80;;
40322;SDS011;26030;51.164;17.100;2023-07-30T01:19:01;1.80;;;1.60;;
40322;SDS011;26030;51.164;17.100;2023-07-30T01:24:08;4.80;;;2.00;;
40322;SDS011;26030;51.164;17.100;2023-07-30T01:29:30;1.80;;;1.70;;
40322;SDS011;26030;51.164;17.100;2023-07-30T01:34:37;2.10;;;1.50;;
40322;SDS011;26030;51.164;17.100;2023-07-30T01:39:44;1.80;;;1.70;;
40322;SDS011;26030;51.164;17.100;2023-07-30T01:44:49;1.90;;;1.80;;
40322;SDS011;26030;51.164;17.100;2023-07-30T01:49:53;3.90;;;1.60;;
40322;SDS011;26030;51.164;17.100;2023-07-30T01:54:58;1.90;;;1.70;;
40322;SDS011;26030;51.164;17.100;2023-07-30T02:00:05;2.00;;;1.80;;
40322;SDS011;26030;51.164;17.100;2023-07-30T02:05:10;1.80;;;1.60;;
40322;SDS011;26030;51.164;17.100;2023-07-30T02:10:14;2.10;;;1.60;;
40322;SDS011;26030;51.164;17.100;2023-07-30T02:15:22;2.60;;;1.50;;
40322;SDS011;26030;51.164;17.100;2023-07-30T02:20:26;1.60;;;1.50;;
40322;SDS011;26030;51.164;17.100;2023-07-30T02:25:31;2.30;;;1.80;;
40322;SDS011;26030;51.164;17.100;2023-07-30T02:30:38;1.70;;;1.60;;
40322;SDS011;26030;51.164;17.100;2023-07-30T02:35:43;2.30;;;1.20;;
40322;SDS011;26030;51.164;17.100;2023-07-30T02:40:48;3.00;;;1.90;;
40322;SDS011;26030;51.164;17.100;2023-07-30T02:45:52;2.00;;;1.80;;
40322;SDS011;26030;51.164;17.100;2023-07-30T02:50:57;1.60;;;1.50;;
40322;SDS011;26030;51.164;17.100;2023-07-30T02:56:01;2.60;;;1.60;;
40322;SDS011;26030;51.164;17.100;2023-07-30T03:01:07;2.90;;;1.50;;
40322;SDS011;26030;51.164;17.100;2023-07-30T03:06:11;1.80;;;1.50;;
40322;SDS011;26030;51.164;17.100;2023-07-30T03:11:16;1.60;;;1.40;;
40322;SDS011;26030;51.164;17.100;2023-07-30T03:16:20;2.00;;;1.70;;
40322;SDS011;26030;51.164;17.100;2023-07-30T03:21:25;3.80;;;1.70;;
40322;SDS011;26030;51.164;17.100;2023-07-30T03:26:29;3.00;;;2.00;;
40322;SDS011;26030;51.164;17.100;2023-07-30T03:31:33;2.60;;;1.80;;
40322;SDS011;26030;51.164;17.100;2023-07-30T03:36:39;2.90;;;1.80;;
40322;SDS011;26030;51.164;17.100;2023-07-30T03:41:43;2.80;;;1.70;;
40322;SDS011;26030;51.164;17.100;2023-07-30T03:46:48;2.90;;;1.70;;
40322;SDS011;26030;51.164;17.100;2023-07-30T03:52:00;1.90;;;1.60;;
40322;SDS011;26030;51.164;17.100;2023-07-30T03:57:04;2.30;;;1.70;;
40322;SDS011;26030;51.164;17.100;2023-07-30T04:02:09;2.50;;;1.60;;
40322;SDS011;26030;51.164;17.100;2023-07-30T04:07:13;2.20;;;1.60;;
40322;SDS011;26030;51.164;17.100;2023-07-30T04:12:18;2.00;;;1.80;;
40322;SDS011;26030;51.164;17.100;2023-07-30T04:17:24;3.60;;;1.70;;
40322;SDS011;26030;51.164;17.100;2023-07-30T04:22:28;3.00;;;1.20;;
40322;SDS011;26030;51.164;17.100;2023-07-30T04:27:32;3.10;;;1.70;;
40322;SDS011;26030;51.164;17.100;2023-07-30T04:32:37;2.80;;;1.60;;
40322;SDS011;26030;51.164;17.100;2023-07-30T04:37:42;1.60;;;1.40;;
40322;SDS011;26030;51.164;17.100;2023-07-30T04:42:46;1.30;;;1.20;;
40322;SDS011;26030;51.164;17.100;2023-07-30T04:47:51;2.60;;;1.80;;
40322;SDS011;26030;51.164;17.100;2023-07-30T04:52:55;1.70;;;1.60;;
40322;SDS011;26030;51.164;17.100;2023-07-30T04:57:59;2.80;;;1.10;;
40322;SDS011;26030;51.164;17.100;2023-07-30T05:03:04;2.20;;;1.30;;
40322;SDS011;26030;51.164;17.100;2023-07-30T05:08:08;2.60;;;1.70;;
40322;SDS011;26030;51.164;17.100;2023-07-30T05:13:12;2.70;;;1.80;;
40322;SDS011;26030;51.164;17.100;2023-07-30T05:18:17;2.80;;;1.30;;
40322;SDS011;26030;51.164;17.100;2023-07-30T05:23:22;1.50;;;1.40;;
40322;SDS011;26030;51.164;17.100;2023-07-30T05:28:26;1.40;;;1.30;;
40322;SDS011;26030;51.164;17.100;2023-07-30T05:33:30;2.70;;;1.80;;
40322;SDS011;26030;51.164;17.100;2023-07-30T05:38:34;3.90;;;1.40;;
40322;SDS011;26030;51.164;17.100;2023-07-30T05:43:39;2.40;;;1.50;;
40322;SDS011;26030;51.164;17.100;2023-07-30T05:48:43;4.10;;;1.50;;
40322;SDS011;26030;51.164;17.100;2023-07-30T05:53:47;2.80;;;1.50;;
40322;SDS011;26030;51.164;17.100;2023-07-30T05:58:51;1.80;;;1.40;;
40322;SDS011;26030;51.164;17.100;2023-07-30T06:03:56;4.20;;;1.40;;
40322;SDS011;26030;51.164;17.100;2023-07-30T06:09:00;6.30;;;1.90;;
40322;SDS011;26030;51.164;17.100;2023-07-30T06:14:04;6.60;;;1.80;;
40322;SDS011;26030;51.164;17.100;2023-07-30T06:19:08;3.30;;;1.60;;
40322;SDS011;26030;51.164;17.100;2023-07-30T06:24:13;3.20;;;1.50;;
40322;SDS011;26030;51.164;17.100;2023-07-30T06:29:17;3.00;;;2.00;;
40322;SDS011;26030;51.164;17.100;2023-07-30T06:34:21;3.40;;;1.40;;
40322;SDS011;26030;51.164;17.100;2023-07-30T06:39:28;2.30;;;1.60;;
40322;SDS011;26030;51.164;17.100;2023-07-30T06:44:33;2.30;;;1.60;;
40322;SDS011;26030;51.164;17.100;2023-07-30T06:49:37;1.70;;;1.50;;
40322;SDS011;26030;51.164;17.100;2023-07-30T06:54:41;2.70;;;1.50;;
40322;SDS011;26030;51.164;17.100;2023-07-30T06:59:45;2.30;;;1.70;;
40322;SDS011;26030;51.164;17.100;2023-07-30T07:04:50;1.50;;;1.40;;
40322;SDS011;26030;51.164;17.100;2023-07-30T07:09:54;3.70;;;1.80;;
40322;SDS011;26030;51.164;17.100;2023-07-30T07:14:59;5.20;;;1.90;;
40322;SDS011;26030;51.164;17.100;2023-07-30T07:20:06;2.50;;;1.60;;
40322;SDS011;26030;51.164;17.100;2023-07-30T07:25:11;3.10;;;1.70;;
40322;SDS011;26030;51.164;17.100;2023-07-30T07:30:16;3.40;;;1.90;;
40322;SDS011;26030;51.164;17.100;2023-07-30T07:35:20;4.80;;;1.70;;
40322;SDS011;26030;51.164;17.100;2023-07-30T07:40:24;4.50;;;1.60;;
40322;SDS011;26030;51.164;17.100;2023-07-30T07:45:29;2.60;;;1.40;;
40322;SDS011;26030;51.164;17.100;2023-07-30T07:50:36;2.10;;;1.70;;
40322;SDS011;26030;51.164;17.100;2023-07-30T07:55:42;2.40;;;1.70;;
40322;SDS011;26030;51.164;17.100;2023-07-30T08:00:47;3.70;;;1.90;;
40322;SDS011;26030;51.164;17.100;2023-07-30T08:05:51;3.00;;;1.80;;
40322;SDS011;26030;51.164;17.100;2023-07-30T08:10:55;3.50;;;2.10;;
40322;SDS011;26030;51.164;17.100;2023-07-30T08:16:03;2.90;;;1.70;;
40322;SDS011;26030;51.164;17.100;2023-07-30T08:21:07;2.80;;;1.50;;
40322;SDS011;26030;51.164;17.100;2023-07-30T08:26:11;1.80;;;1.70;;
40322;SDS011;26030;51.164;17.100;2023-07-30T08:31:16;2.00;;;1.90;;
40322;SDS011;26030;51.164;17.100;2023-07-30T08:36:20;1.40;;;1.30;;
40322;SDS011;26030;51.164;17.100;2023-07-30T08:41:26;2.90;;;1.50;;
40322;SDS011;26030;51.164;17.100;2023-07-30T08:46:30;1.40;;;1.30;;
40322;SDS011;26030;51.164;17.100;2023-07-30T08:51:36;1.60;;;1.50;;
40322;SDS011;26030;51.164;17.100;2023-07-30T08:56:42;1.70;;;1.60;;
40322;SDS011;26030;51.164;17.100;2023-07-30T09:01:46;2.10;;;1.60;;
40322;SDS011;26030;51.164;17.100;2023-07-30T09:06:54;1.70;;;1.60;;
40322;SDS011;26030;51.164;17.100;2023-07-30T09:11:58;1.80;;;1.70;;
40322;SDS011;26030;51.164;17.100;2023-07-30T09:17:04;1.80;;;1.70;;
40322;SDS011;26030;51.164;17.100;2023-07-30T09:22:09;3.30;;;1.50;;
40322;SDS011;26030;51.164;17.100;2023-07-30T09:27:13;1.50;;;1.40;;
40322;SDS011;26030;51.164;17.100;2023-07-30T09:32:17;1.70;;;1.60;;
40322;SDS011;26030;51.164;17.100;2023-07-30T09:37:22;2.50;;;1.60;;
40322;SDS011;26030;51.164;17.100;2023-07-30T09:42:27;2.40;;;1.40;;
40322;SDS011;26030;51.164;17.100;2023-07-30T09:47:32;2.90;;;1.70;;
40322;SDS011;26030;51.164;17.100;2023-07-30T09:52:38;1.40;;;1.30;;
40322;SDS011;26030;51.164;17.100;2023-07-30T09:57:43;2.60;;;1.40;;
40322;SDS011;26030;51.164;17.100;2023-07-30T10:02:49;1.60;;;1.50;;
40322;SDS011;26030;51.164;17.100;2023-07-30T10:07:59;1.80;;;1.60;;
40322;SDS011;26030;51.164;17.100;2023-07-30T10:13:08;1.50;;;1.40;;
40322;SDS011;26030;51.164;17.100;2023-07-30T10:18:13;1.80;;;1.60;;
40322;SDS011;26030;51.164;17.100;2023-07-30T10:23:17;1.70;;;1.50;;
40322;SDS011;26030;51.164;17.100;2023-07-30T10:28:34;1.90;;;1.80;;
40322;SDS011;26030;51.164;17.100;2023-07-30T10:33:45;1.80;;;1.70;;
40322;SDS011;26030;51.164;17.100;2023-07-30T10:38:51;1.40;;;1.30;;
40322;SDS011;26030;51.164;17.100;2023-07-30T10:43:55;2.40;;;1.40;;
40322;SDS011;26030;51.164;17.100;2023-07-30T10:49:03;4.30;;;1.40;;
40322;SDS011;26030;51.164;17.100;2023-07-30T10:54:07;1.70;;;1.50;;
40322;SDS011;26030;51.164;17.100;2023-07-30T10:59:14;1.70;;;1.60;;
40322;SDS011;26030;51.164;17.100;2023-07-30T11:04:20;1.60;;;1.50;;
40322;SDS011;26030;51.164;17.100;2023-07-30T11:09:26;2.00;;;1.90;;
40322;SDS011;26030;51.164;17.100;2023-07-30T11:14:30;1.50;;;1.40;;
40322;SDS011;26030;51.164;17.100;2023-07-30T11:19:34;1.70;;;1.60;;
40322;SDS011;26030;51.164;17.100;2023-07-30T11:24:38;3.00;;;1.50;;
40322;SDS011;26030;51.164;17.100;2023-07-30T11:29:54;1.70;;;1.60;;
40322;SDS011;26030;51.164;17.100;2023-07-30T11:34:58;1.60;;;1.50;;
40322;SDS011;26030;51.164;17.100;2023-07-30T11:40:03;1.80;;;1.60;;
40322;SDS011;26030;51.164;17.100;2023-07-30T11:45:22;1.90;;;1.80;;
40322;SDS011;26030;51.164;17.100;2023-07-30T11:50:48;1.40;;;1.30;;
40322;SDS011;26030;51.164;17.100;2023-07-30T11:55:52;1.50;;;1.40;;
40322;SDS011;26030;51.164;17.100;2023-07-30T12:01:00;2.00;;;1.50;;
40322;SDS011;26030;51.164;17.100;2023-07-30T12:06:05;1.60;;;1.50;;
40322;SDS011;26030;51.164;17.100;2023-07-30T12:11:10;1.70;;;1.60;;
40322;SDS011;26030;51.164;17.100;2023-07-30T12:16:14;1.60;;;1.50;;
40322;SDS011;26030;51.164;17.100;2023-07-30T12:21:22;1.80;;;1.70;;
40322;SDS011;26030;51.164;17.100;2023-07-30T12:26:27;1.80;;;1.70;;
40322;SDS011;26030;51.164;17.100;2023-07-30T12:31:32;2.70;;;1.80;;
40322;SDS011;26030;51.164;17.100;2023-07-30T12:36:36;1.60;;;1.50;;
40322;SDS011;26030;51.164;17.100;2023-07-30T12:41:40;1.50;;;1.40;;
40322;SDS011;26030;51.164;17.100;2023-07-30T12:46:48;1.50;;;1.40;;
40322;SDS011;26030;51.164;17.100;2023-07-30T12:51:52;2.20;;;1.60;;
40322;SDS011;26030;51.164;17.100;2023-07-30T12:56:58;1.70;;;1.50;;
40322;SDS011;26030;51.164;17.100;2023-07-30T13:02:05;1.50;;;1.50;;
40322;SDS011;26030;51.164;17.100;2023-07-30T13:07:11;2.20;;;1.60;;
40322;SDS011;26030;51.164;17.100;2023-07-30T13:12:16;1.70;;;1.60;;
40322;SDS011;26030;51.164;17.100;2023-07-30T13:17:23;1.40;;;1.30;;
40322;SDS011;26030;51.164;17.100;2023-07-30T13:22:30;1.50;;;1.40;;
40322;SDS011;26030;51.164;17.100;2023-07-30T13:27:35;2.90;;;1.50;;
40322;SDS011;26030;51.164;17.100;2023-07-30T13:32:40;1.70;;;1.20;;
40322;SDS011;26030;51.164;17.100;2023-07-30T13:37:45;1.90;;;1.40;;
40322;SDS011;26030;51.164;17.100;2023-07-30T13:42:51;1.70;;;1.60;;
40322;SDS011;26030;51.164;17.100;2023-07-30T13:47:56;1.20;;;1.10;;
40322;SDS011;26030;51.164;17.100;2023-07-30T13:53:00;1.60;;;1.50;;
40322;SDS011;26030;51.164;17.100;2023-07-30T13:58:06;1.20;;;1.20;;
40322;SDS011;26030;51.164;17.100;2023-07-30T14:03:10;1.50;;;1.40;;
40322;SDS011;26030;51.164;17.100;2023-07-30T14:08:16;1.60;;;1.50;;
40322;SDS011;26030;51.164;17.100;2023-07-30T14:13:22;1.50;;;1.40;;
40322;SDS011;26030;51.164;17.100;2023-07-30T14:18:32;1.50;;;1.40;;
40322;SDS011;26030;51.164;17.100;2023-07-30T14:23:37;1.00;;;1.00;;
40322;SDS011;26030;51.164;17.100;2023-07-30T14:28:42;1.40;;;1.20;;
40322;SDS011;26030;51.164;17.100;2023-07-30T14:33:47;1.30;;;1.30;;
40322;SDS011;26030;51.164;17.100;2023-07-30T14:38:51;1.70;;;1.60;;
40322;SDS011;26030;51.164;17.100;2023-07-30T14:43:56;1.60;;;1.50;;
40322;SDS011;26030;51.164;17.100;2023-07-30T14:49:01;1.90;;;1.80;;
40322;SDS011;26030;51.164;17.100;2023-07-30T14:54:06;1.80;;;1.70;;
40322;SDS011;26030;51.164;17.100;2023-07-30T14:59:10;3.20;;;1.60;;
40322;SDS011;26030;51.164;17.100;2023-07-30T15:04:15;2.80;;;1.60;;
40322;SDS011;26030;51.164;17.100;2023-07-30T15:09:19;2.60;;;1.70;;
40322;SDS011;26030;51.164;17.100;2023-07-30T15:14:24;2.40;;;1.80;;
40322;SDS011;26030;51.164;17.100;2023-07-30T15:19:28;1.70;;;1.60;;
40322;SDS011;26030;51.164;17.100;2023-07-30T15:24:33;3.40;;;2.20;;
40322;SDS011;26030;51.164;17.100;2023-07-30T15:29:44;3.10;;;2.40;;
40322;SDS011;26030;51.164;17.100;2023-07-30T15:34:48;3.00;;;1.90;;
40322;SDS011;26030;51.164;17.100;2023-07-30T15:39:52;4.00;;;2.10;;
40322;SDS011;26030;51.164;17.100;2023-07-30T15:44:58;2.00;;;1.90;;
40322;SDS011;26030;51.164;17.100;2023-07-30T15:50:06;4.90;;;2.10;;
40322;SDS011;26030;51.164;17.100;2023-07-30T15:55:12;3.10;;;2.10;;
40322;SDS011;26030;51.164;17.100;2023-07-30T16:00:20;3.90;;;2.30;;
40322;SDS011;26030;51.164;17.100;2023-07-30T16:05:28;3.90;;;2.20;;
40322;SDS011;26030;51.164;17.100;2023-07-30T16:10:33;4.00;;;1.90;;
40322;SDS011;26030;51.164;17.100;2023-07-30T16:15:38;2.60;;;1.80;;
40322;SDS011;26030;51.164;17.100;2023-07-30T16:20:42;2.60;;;2.20;;
40322;SDS011;26030;51.164;17.100;2023-07-30T16:25:47;3.80;;;1.90;;
40322;SDS011;26030;51.164;17.100;2023-07-30T16:30:53;2.60;;;2.00;;
40322;SDS011;26030;51.164;17.100;2023-07-30T16:35:59;2.60;;;2.30;;
40322;SDS011;26030;51.164;17.100;2023-07-30T16:41:08;4.20;;;2.30;;
40322;SDS011;26030;51.164;17.100;2023-07-30T16:46:13;2.70;;;2.20;;
40322;SDS011;26030;51.164;17.100;2023-07-30T16:51:18;2.50;;;2.00;;
40322;SDS011;26030;51.164;17.100;2023-07-30T16:56:23;2.20;;;1.90;;
40322;SDS011;26030;51.164;17.100;2023-07-30T17:01:30;2.40;;;1.80;;
40322;SDS011;26030;51.164;17.100;2023-07-30T17:06:35;4.30;;;2.10;;
40322;SDS011;26030;51.164;17.100;2023-07-30T17:11:41;2.60;;;2.10;;
40322;SDS011;26030;51.164;17.100;2023-07-30T17:16:45;3.60;;;2.10;;
40322;SDS011;26030;51.164;17.100;2023-07-30T17:21:51;9.30;;;2.20;;
40322;SDS011;26030;51.164;17.100;2023-07-30T17:26:56;2.50;;;2.10;;
40322;SDS011;26030;51.164;17.100;2023-07-30T17:32:01;2.30;;;1.90;;
40322;SDS011;26030;51.164;17.100;2023-07-30T17:37:06;2.60;;;2.10;;
40322;SDS011;26030;51.164;17.100;2023-07-30T17:42:12;3.50;;;2.10;;
40322;SDS011;26030;51.164;17.100;2023-07-30T17:47:20;2.20;;;2.00;;
40322;SDS011;26030;51.164;17.100;2023-07-30T17:52:24;3.00;;;2.20;;
40322;SDS011;26030;51.164;17.100;2023-07-30T17:57:30;2.20;;;1.80;;
40322;SDS011;26030;51.164;17.100;2023-07-30T18:02:35;2.60;;;2.00;;
40322;SDS011;26030;51.164;17.100;2023-07-30T18:07:39;2.10;;;1.90;;
40322;SDS011;26030;51.164;17.100;2023-07-30T18:12:44;2.20;;;1.80;;
40322;SDS011;26030;51.164;17.100;2023-07-30T18:17:49;2.60;;;1.60;;
40322;SDS011;26030;51.164;17.100;2023-07-30T18:22:56;2.40;;;1.80;;
40322;SDS011;26030;51.164;17.100;2023-07-30T18:28:01;1.80;;;1.70;;
40322;SDS011;26030;51.164;17.100;2023-07-30T18:33:06;2.20;;;2.00;;
40322;SDS011;26030;51.164;17.100;2023-07-30T18:38:14;2.10;;;1.70;;
40322;SDS011;26030;51.164;17.100;2023-07-30T18:43:20;2.40;;;1.80;;
40322;SDS011;26030;51.164;17.100;2023-07-30T18:48:26;2.50;;;1.90;;
40322;SDS011;26030;51.164;17.100;2023-07-30T18:53:32;3.50;;;2.10;;
40322;SDS011;26030;51.164;17.100;2023-07-30T18:58:38;1.90;;;1.50;;
40322;SDS011;26030;51.164;17.100;2023-07-30T19:03:43;1.90;;;1.70;;
40322;SDS011;26030;51.164;17.100;2023-07-30T19:08:51;2.00;;;1.40;;
40322;SDS011;26030;51.164;17.100;2023-07-30T19:13:57;1.80;;;1.60;;
40322;SDS011;26030;51.164;17.100;2023-07-30T19:19:02;2.10;;;1.70;;
40322;SDS011;26030;51.164;17.100;2023-07-30T19:24:07;1.60;;;1.40;;
40322;SDS011;26030;51.164;17.100;2023-07-30T19:29:11;1.90;;;1.70;;
40322;SDS011;26030;51.164;17.100;2023-07-30T19:34:21;1.90;;;1.80;;
40322;SDS011;26030;51.164;17.100;2023-07-30T19:39:25;2.00;;;1.50;;
40322;SDS011;26030;51.164;17.100;2023-07-30T19:44:30;1.90;;;1.50;;
40322;SDS011;26030;51.164;17.100;2023-07-30T19:49:35;4.40;;;1.80;;
40322;SDS011;26030;51.164;17.100;2023-07-30T19:54:42;1.90;;;1.60;;
40322;SDS011;26030;51.164;17.100;2023-07-30T19:59:47;2.60;;;1.50;;
40322;SDS011;26030;51.164;17.100;2023-07-30T20:04:52;2.00;;;1.60;;
40322;SDS011;26030;51.164;17.100;2023-07-30T20:09:57;2.20;;;1.50;;
40322;SDS011;26030;51.164;17.100;2023-07-30T20:15:03;1.70;;;1.60;;
40322;SDS011;26030;51.164;17.100;2023-07-30T20:20:08;3.20;;;1.50;;
40322;SDS011;26030;51.164;17.100;2023-07-30T20:25:14;2.20;;;1.90;;
40322;SDS011;26030;51.164;17.100;2023-07-30T20:30:19;4.80;;;2.10;;
40322;SDS011;26030;51.164;17.100;2023-07-30T20:35:24;1.90;;;1.60;;
40322;SDS011;26030;51.164;17.100;2023-07-30T20:40:30;3.00;;;1.40;;
40322;SDS011;26030;51.164;17.100;2023-07-30T20:45:35;2.70;;;1.40;;
40322;SDS011;26030;51.164;17.100;2023-07-30T20:50:40;2.30;;;1.30;;
40322;SDS011;26030;51.164;17.100;2023-07-30T20:55:44;1.50;;;1.30;;
40322;SDS011;26030;51.164;17.100;2023-07-30T21:00:49;2.20;;;1.40;;
40322;SDS011;26030;51.164;17.100;2023-07-30T21:05:53;1.40;;;1.30;;
40322;SDS011;26030;51.164;17.100;2023-07-30T21:10:57;2.60;;;1.40;;
40322;SDS011;26030;51.164;17.100;2023-07-30T21:16:01;2.40;;;1.30;;
40322;SDS011;26030;51.164;17.100;2023-07-30T21:21:06;1.50;;;1.30;;
40322;SDS011;26030;51.164;17.100;2023-07-30T21:26:16;1.30;;;1.20;;
40322;SDS011;26030;51.164;17.100;2023-07-30T21:31:22;1.20;;;1.10;;
40322;SDS011;26030;51.164;17.100;2023-07-30T21:36:28;1.30;;;1.20;;
40322;SDS011;26030;51.164;17.100;2023-07-30T21:41:37;3.80;;;1.50;;
40322;SDS011;26030;51.164;17.100;2023-07-30T21:46:42;3.00;;;1.30;;
40322;SDS011;26030;51.164;17.100;2023-07-30T21:51:46;2.70;;;1.40;;
40322;SDS011;26030;51.164;17.100;2023-07-30T21:56:51;1.10;;;1.00;;
40322;SDS011;26030;51.164;17.100;2023-07-30T22:01:56;1.60;;;1.50;;
40322;SDS011;26030;51.164;17.100;2023-07-30T22:07:01;1.00;;;1.00;;
40322;SDS011;26030;51.164;17.100;2023-07-30T22:12:05;1.40;;;1.30;;
40322;SDS011;26030;51.164;17.100;2023-07-30T22:17:11;2.90;;;1.60;;
40322;SDS011;26030;51.164;17.100;2023-07-30T22:22:15;3.20;;;1.30;;
40322;SDS011;26030;51.164;17.100;2023-07-30T22:27:29;5.10;;;1.30;;
40322;SDS011;26030;51.164;17.100;2023-07-30T22:32:33;1.90;;;1.30;;
40322;SDS011;26030;51.164;17.100;2023-07-30T22:37:39;1.30;;;1.20;;
40322;SDS011;26030;51.164;17.100;2023-07-30T22:42:43;1.30;;;1.20;;
40322;SDS011;26030;51.164;17.100;2023-07-30T22:47:48;3.60;;;1.20;;
40322;SDS011;26030;51.164;17.100;2023-07-30T22:52:53;1.10;;;1.00;;
40322;SDS011;26030;51.164;17.100;2023-07-30T22:58:00;1.70;;;1.10;;
40322;SDS011;26030;51.164;17.100;2023-07-30T23:03:05;1.50;;;1.40;;
40322;SDS011;26030;51.164;17.100;2023-07-30T23:08:09;1.50;;;0.90;;
40322;SDS011;26030;51.164;17.100;2023-07-30T23:13:13;1.10;;;1.00;;
40322;SDS011;26030;51.164;17.100;2023-07-30T23:18:18;1.90;;;1.40;;
40322;SDS011;26030;51.164;17.100;2023-07-30T23:23:25;1.70;;;0.80;;
40322;SDS011;26030;51.164;17.100;2023-07-30T23:28:30;1.80;;;1.20;;
40322;SDS011;26030;51.164;17.100;2023-07-30T23:33:34;3.00;;;1.20;;
40322;SDS011;26030;51.164;17.100;2023-07-30T23:38:41;1.30;;;1.10;;
40322;SDS011;26030;51.164;17.100;2023-07-30T23:43:47;2.00;;;1.10;;
40322;SDS011;26030;51.164;17.100;2023-07-30T23:48:51;3.20;;;1.20;;
40322;SDS011;26030;51.164;17.100;2023-07-30T23:53:57;3.90;;;1.30;;
40322;SDS011;26030;51.164;17.100;2023-07-30T23:59:02;2.70;;;1.70;;
